sensor_id;sensor_type;location;lat;lon;timestamp;temperature;humidity
31038;DHT22;17702;47.590;7.666;2023-08-07T00:02:25;16.40;99.90
31038;DHT22;17702;47.590;7.666;2023-08-07T00:04:50;16.40;99.90
31038;DHT22;17702;47.590;7.666;2023-08-07T00:07:16;16.40;99.90
31038;DHT22;17702;47.590;7.666;2023-08-07T00:09:41;16.50;99.90
31038;DHT22;17702;47.590;7.666;2023-08-07T00:12:07;16.50;99.60
31038;DHT22;17702;47.590;7.666;2023-08-07T00:14:33;16.50;99.90
31038;DHT22;17702;47.590;7.666;2023-08-07T00:16:58;16.50;99.90
31038;DHT22;17702;47.590;7.666;2023-08-07T00:19:24;16.40;99.90
31038;DHT22;17702;47.590;7.666;2023-08-07T00:21:49;16.40;99.90
31038;DHT22;17702;47.590;7.666;2023-08-07T00:24:15;16.40;99.90
31038;DHT22;17702;47.590;7.666;2023-08-07T00:26:40;16.40;99.90
31038;DHT22;17702;47.590;7.666;2023-08-07T00:29:06;16.50;99.90
31038;DHT22;17702;47.590;7.666;2023-08-07T00:31:31;16.40;99.90
31038;DHT22;17702;47.590;7.666;2023-08-07T00:33:58;16.40;99.90
31038;DHT22;17702;47.590;7.666;2023-08-07T00:36:23;16.40;99.90
31038;DHT22;17702;47.590;7.666;2023-08-07T00:38:50;16.40;99.90
31038;DHT22;17702;47.590;7.666;2023-08-07T00:41:18;16.40;99.90
31038;DHT22;17702;47.590;7.666;2023-08-07T00:43:44;16.40;99.50
31038;DHT22;17702;47.590;7.666;2023-08-07T00:46:10;16.40;99.60
31038;DHT22;17702;47.590;7.666;2023-08-07T00:48:36;16.40;99.10
31038;DHT22;17702;47.590;7.666;2023-08-07T00:51:02;16.40;98.90
31038;DHT22;17702;47.590;7.666;2023-08-07T00:53:28;16.50;99.70
31038;DHT22;17702;47.590;7.666;2023-08-07T00:55:54;16.40;99.40
31038;DHT22;17702;47.590;7.666;2023-08-07T00:58:19;16.50;99.60
31038;DHT22;17702;47.590;7.666;2023-08-07T01:00:45;16.50;99.20
31038;DHT22;17702;47.590;7.666;2023-08-07T01:03:12;16.50;99.10
31038;DHT22;17702;47.590;7.666;2023-08-07T01:05:39;16.50;99.50
31038;DHT22;17702;47.590;7.666;2023-08-07T01:08:05;16.50;99.10
31038;DHT22;17702;47.590;7.666;2023-08-07T01:13:30;16.50;99.30
31038;DHT22;17702;47.590;7.666;2023-08-07T01:16:01;16.50;98.60
31038;DHT22;17702;47.590;7.666;2023-08-07T01:18:33;16.50;98.10
31038;DHT22;17702;47.590;7.666;2023-08-07T01:20:59;16.50;98.80
31038;DHT22;17702;47.590;7.666;2023-08-07T01:23:25;16.50;98.00
31038;DHT22;17702;47.590;7.666;2023-08-07T01:25:51;16.40;97.90
31038;DHT22;17702;47.590;7.666;2023-08-07T01:28:33;16.40;98.30
31038;DHT22;17702;47.590;7.666;2023-08-07T01:31:04;16.40;98.20
31038;DHT22;17702;47.590;7.666;2023-08-07T01:33:43;16.40;98.50
31038;DHT22;17702;47.590;7.666;2023-08-07T01:36:14;16.40;98.80
31038;DHT22;17702;47.590;7.666;2023-08-07T01:38:41;16.40;99.00
31038;DHT22;17702;47.590;7.666;2023-08-07T01:41:09;16.40;99.50
31038;DHT22;17702;47.590;7.666;2023-08-07T01:43:34;16.40;99.30
31038;DHT22;17702;47.590;7.666;2023-08-07T01:46:01;16.40;99.80
31038;DHT22;17702;47.590;7.666;2023-08-07T01:48:28;16.40;99.50
31038;DHT22;17702;47.590;7.666;2023-08-07T01:50:53;16.40;99.90
31038;DHT22;17702;47.590;7.666;2023-08-07T01:53:20;16.30;98.90
31038;DHT22;17702;47.590;7.666;2023-08-07T01:55:45;16.30;98.60
31038;DHT22;17702;47.590;7.666;2023-08-07T01:58:11;16.20;99.20
31038;DHT22;17702;47.590;7.666;2023-08-07T02:00:37;16.20;99.60
31038;DHT22;17702;47.590;7.666;2023-08-07T02:03:03;16.20;98.70
31038;DHT22;17702;47.590;7.666;2023-08-07T02:05:28;16.20;99.00
31038;DHT22;17702;47.590;7.666;2023-08-07T02:07:54;16.20;99.00
31038;DHT22;17702;47.590;7.666;2023-08-07T02:10:22;16.20;98.60
31038;DHT22;17702;47.590;7.666;2023-08-07T02:12:48;16.30;98.60
31038;DHT22;17702;47.590;7.666;2023-08-07T02:15:13;16.30;98.60
31038;DHT22;17702;47.590;7.666;2023-08-07T02:17:39;16.20;98.60
31038;DHT22;17702;47.590;7.666;2023-08-07T02:20:07;16.20;98.50
31038;DHT22;17702;47.590;7.666;2023-08-07T02:22:32;16.20;98.60
31038;DHT22;17702;47.590;7.666;2023-08-07T02:24:58;16.20;98.70
31038;DHT22;17702;47.590;7.666;2023-08-07T02:27:24;16.20;98.80
31038;DHT22;17702;47.590;7.666;2023-08-07T02:29:49;16.20;98.70
31038;DHT22;17702;47.590;7.666;2023-08-07T02:32:16;16.20;98.40
31038;DHT22;17702;47.590;7.666;2023-08-07T02:34:42;16.20;98.70
31038;DHT22;17702;47.590;7.666;2023-08-07T02:37:08;16.20;98.50
31038;DHT22;17702;47.590;7.666;2023-08-07T02:39:34;16.20;98.70
31038;DHT22;17702;47.590;7.666;2023-08-07T02:42:00;16.10;98.60
31038;DHT22;17702;47.590;7.666;2023-08-07T02:44:25;16.20;98.10
31038;DHT22;17702;47.590;7.666;2023-08-07T02:46:51;16.10;98.10
31038;DHT22;17702;47.590;7.666;2023-08-07T02:49:16;16.10;97.90
31038;DHT22;17702;47.590;7.666;2023-08-07T02:51:42;16.10;98.00
31038;DHT22;17702;47.590;7.666;2023-08-07T02:54:07;16.10;97.90
31038;DHT22;17702;47.590;7.666;2023-08-07T02:56:33;16.10;98.10
31038;DHT22;17702;47.590;7.666;2023-08-07T02:58:59;16.10;98.20
31038;DHT22;17702;47.590;7.666;2023-08-07T03:01:27;16.10;97.90
31038;DHT22;17702;47.590;7.666;2023-08-07T03:03:53;16.10;98.40
31038;DHT22;17702;47.590;7.666;2023-08-07T03:06:18;16.10;98.30
31038;DHT22;17702;47.590;7.666;2023-08-07T03:08:44;16.10;99.20
31038;DHT22;17702;47.590;7.666;2023-08-07T03:11:10;16.10;98.60
31038;DHT22;17702;47.590;7.666;2023-08-07T03:13:36;16.20;98.80
31038;DHT22;17702;47.590;7.666;2023-08-07T03:16:03;16.10;98.00
31038;DHT22;17702;47.590;7.666;2023-08-07T03:18:29;16.10;98.30
31038;DHT22;17702;47.590;7.666;2023-08-07T03:20:56;16.10;98.20
31038;DHT22;17702;47.590;7.666;2023-08-07T03:23:26;16.10;98.20
31038;DHT22;17702;47.590;7.666;2023-08-07T03:26:02;16.10;98.30
31038;DHT22;17702;47.590;7.666;2023-08-07T03:28:28;16.10;98.30
31038;DHT22;17702;47.590;7.666;2023-08-07T03:30:53;16.10;98.30
31038;DHT22;17702;47.590;7.666;2023-08-07T03:33:19;16.10;98.30
31038;DHT22;17702;47.590;7.666;2023-08-07T03:35:44;16.10;98.60
31038;DHT22;17702;47.590;7.666;2023-08-07T03:38:11;16.10;99.30
31038;DHT22;17702;47.590;7.666;2023-08-07T03:40:36;16.10;98.60
31038;DHT22;17702;47.590;7.666;2023-08-07T03:43:02;16.00;98.20
31038;DHT22;17702;47.590;7.666;2023-08-07T03:45:27;16.00;98.70
31038;DHT22;17702;47.590;7.666;2023-08-07T03:47:53;16.00;98.50
31038;DHT22;17702;47.590;7.666;2023-08-07T03:50:18;15.90;98.50
31038;DHT22;17702;47.590;7.666;2023-08-07T03:52:44;16.00;98.50
31038;DHT22;17702;47.590;7.666;2023-08-07T03:55:09;15.90;98.90
31038;DHT22;17702;47.590;7.666;2023-08-07T03:57:35;15.90;99.00
31038;DHT22;17702;47.590;7.666;2023-08-07T04:00:00;16.00;99.00
31038;DHT22;17702;47.590;7.666;2023-08-07T04:02:26;16.00;99.20
31038;DHT22;17702;47.590;7.666;2023-08-07T04:04:54;16.00;98.70
31038;DHT22;17702;47.590;7.666;2023-08-07T04:07:19;16.00;99.00
31038;DHT22;17702;47.590;7.666;2023-08-07T04:09:46;16.00;99.00
31038;DHT22;17702;47.590;7.666;2023-08-07T04:12:11;16.00;99.00
31038;DHT22;17702;47.590;7.666;2023-08-07T04:14:37;16.00;99.30
31038;DHT22;17702;47.590;7.666;2023-08-07T04:17:02;16.00;99.00
31038;DHT22;17702;47.590;7.666;2023-08-07T04:19:28;16.00;99.20
31038;DHT22;17702;47.590;7.666;2023-08-07T04:21:54;16.00;99.10
31038;DHT22;17702;47.590;7.666;2023-08-07T04:24:19;15.90;98.90
31038;DHT22;17702;47.590;7.666;2023-08-07T04:26:45;15.90;98.90
31038;DHT22;17702;47.590;7.666;2023-08-07T04:29:10;15.80;99.40
31038;DHT22;17702;47.590;7.666;2023-08-07T04:31:36;15.80;99.50
31038;DHT22;17702;47.590;7.666;2023-08-07T04:34:01;15.80;99.30
31038;DHT22;17702;47.590;7.666;2023-08-07T04:36:27;15.80;99.50
31038;DHT22;17702;47.590;7.666;2023-08-07T04:38:53;15.90;99.40
31038;DHT22;17702;47.590;7.666;2023-08-07T04:41:21;15.90;99.20
31038;DHT22;17702;47.590;7.666;2023-08-07T04:43:46;15.90;99.40
31038;DHT22;17702;47.590;7.666;2023-08-07T04:46:13;15.90;99.40
31038;DHT22;17702;47.590;7.666;2023-08-07T04:48:40;15.90;99.80
31038;DHT22;17702;47.590;7.666;2023-08-07T04:51:05;15.90;99.10
31038;DHT22;17702;47.590;7.666;2023-08-07T04:53:31;15.90;99.20
31038;DHT22;17702;47.590;7.666;2023-08-07T04:55:56;15.90;99.40
31038;DHT22;17702;47.590;7.666;2023-08-07T04:58:22;15.90;99.40
31038;DHT22;17702;47.590;7.666;2023-08-07T05:00:47;15.90;99.40
31038;DHT22;17702;47.590;7.666;2023-08-07T05:03:13;15.90;99.50
31038;DHT22;17702;47.590;7.666;2023-08-07T05:05:40;15.90;99.30
31038;DHT22;17702;47.590;7.666;2023-08-07T05:08:06;15.90;99.70
31038;DHT22;17702;47.590;7.666;2023-08-07T05:10:31;15.90;99.20
31038;DHT22;17702;47.590;7.666;2023-08-07T05:12:57;15.90;99.50
31038;DHT22;17702;47.590;7.666;2023-08-07T05:15:23;15.90;99.60
31038;DHT22;17702;47.590;7.666;2023-08-07T05:17:50;16.00;99.30
31038;DHT22;17702;47.590;7.666;2023-08-07T05:20:15;15.90;99.60
31038;DHT22;17702;47.590;7.666;2023-08-07T05:22:41;15.90;98.80
31038;DHT22;17702;47.590;7.666;2023-08-07T05:25:07;15.90;99.80
31038;DHT22;17702;47.590;7.666;2023-08-07T05:27:35;15.90;99.20
31038;DHT22;17702;47.590;7.666;2023-08-07T05:30:00;15.90;99.10
31038;DHT22;17702;47.590;7.666;2023-08-07T05:32:26;15.90;99.20
31038;DHT22;17702;47.590;7.666;2023-08-07T05:34:52;15.90;99.50
31038;DHT22;17702;47.590;7.666;2023-08-07T05:37:17;16.00;99.00
31038;DHT22;17702;47.590;7.666;2023-08-07T05:39:43;15.90;99.00
31038;DHT22;17702;47.590;7.666;2023-08-07T05:42:09;15.90;98.90
31038;DHT22;17702;47.590;7.666;2023-08-07T05:44:35;16.00;99.50
31038;DHT22;17702;47.590;7.666;2023-08-07T05:47:01;16.00;98.70
31038;DHT22;17702;47.590;7.666;2023-08-07T05:49:27;16.00;98.60
31038;DHT22;17702;47.590;7.666;2023-08-07T05:51:53;16.00;99.20
31038;DHT22;17702;47.590;7.666;2023-08-07T05:54:18;16.00;99.30
31038;DHT22;17702;47.590;7.666;2023-08-07T05:56:44;16.00;99.80
31038;DHT22;17702;47.590;7.666;2023-08-07T05:59:10;16.10;99.90
31038;DHT22;17702;47.590;7.666;2023-08-07T06:01:35;16.10;99.60
31038;DHT22;17702;47.590;7.666;2023-08-07T06:04:02;16.10;99.90
31038;DHT22;17702;47.590;7.666;2023-08-07T06:06:28;16.10;99.40
31038;DHT22;17702;47.590;7.666;2023-08-07T06:08:54;16.20;99.90
31038;DHT22;17702;47.590;7.666;2023-08-07T06:11:20;16.20;99.70
31038;DHT22;17702;47.590;7.666;2023-08-07T06:13:45;16.20;99.50
31038;DHT22;17702;47.590;7.666;2023-08-07T06:16:11;16.10;99.80
31038;DHT22;17702;47.590;7.666;2023-08-07T06:18:37;16.20;99.90
31038;DHT22;17702;47.590;7.666;2023-08-07T06:21:02;16.20;99.90
31038;DHT22;17702;47.590;7.666;2023-08-07T06:23:30;16.10;99.90
31038;DHT22;17702;47.590;7.666;2023-08-07T06:25:55;16.10;99.90
31038;DHT22;17702;47.590;7.666;2023-08-07T06:28:22;16.10;99.60
31038;DHT22;17702;47.590;7.666;2023-08-07T06:30:48;16.10;99.70
31038;DHT22;17702;47.590;7.666;2023-08-07T06:33:13;16.10;99.60
31038;DHT22;17702;47.590;7.666;2023-08-07T06:35:39;16.10;99.90
31038;DHT22;17702;47.590;7.666;2023-08-07T06:38:05;16.10;99.90
31038;DHT22;17702;47.590;7.666;2023-08-07T06:40:31;16.20;99.90
31038;DHT22;17702;47.590;7.666;2023-08-07T06:42:57;16.10;99.90
31038;DHT22;17702;47.590;7.666;2023-08-07T06:45:22;16.10;99.90
31038;DHT22;17702;47.590;7.666;2023-08-07T06:47:48;16.10;99.90
31038;DHT22;17702;47.590;7.666;2023-08-07T06:50:14;16.10;99.90
31038;DHT22;17702;47.590;7.666;2023-08-07T06:52:39;16.10;99.90
31038;DHT22;17702;47.590;7.666;2023-08-07T06:55:06;16.00;99.90
31038;DHT22;17702;47.590;7.666;2023-08-07T06:57:32;16.00;99.90
31038;DHT22;17702;47.590;7.666;2023-08-07T06:59:57;16.00;99.90
31038;DHT22;17702;47.590;7.666;2023-08-07T07:02:23;16.00;99.90
31038;DHT22;17702;47.590;7.666;2023-08-07T07:04:48;16.00;99.90
31038;DHT22;17702;47.590;7.666;2023-08-07T07:07:14;16.00;99.90
31038;DHT22;17702;47.590;7.666;2023-08-07T07:09:40;16.10;99.90
31038;DHT22;17702;47.590;7.666;2023-08-07T07:12:05;16.10;99.90
31038;DHT22;17702;47.590;7.666;2023-08-07T07:14:32;16.10;99.90
31038;DHT22;17702;47.590;7.666;2023-08-07T07:16:59;16.10;99.90
31038;DHT22;17702;47.590;7.666;2023-08-07T07:19:25;16.20;99.90
31038;DHT22;17702;47.590;7.666;2023-08-07T07:21:50;16.30;99.90
31038;DHT22;17702;47.590;7.666;2023-08-07T07:24:16;16.30;99.90
31038;DHT22;17702;47.590;7.666;2023-08-07T07:26:41;16.30;99.90
31038;DHT22;17702;47.590;7.666;2023-08-07T07:29:07;16.30;99.90
31038;DHT22;17702;47.590;7.666;2023-08-07T07:31:33;16.20;99.90
31038;DHT22;17702;47.590;7.666;2023-08-07T07:33:58;16.20;99.90
31038;DHT22;17702;47.590;7.666;2023-08-07T07:36:24;16.20;99.90
31038;DHT22;17702;47.590;7.666;2023-08-07T07:38:49;16.30;99.90
31038;DHT22;17702;47.590;7.666;2023-08-07T07:41:16;16.30;99.90
31038;DHT22;17702;47.590;7.666;2023-08-07T07:43:41;16.30;99.90
31038;DHT22;17702;47.590;7.666;2023-08-07T07:46:07;16.40;99.90
31038;DHT22;17702;47.590;7.666;2023-08-07T07:48:32;16.50;99.90
31038;DHT22;17702;47.590;7.666;2023-08-07T07:51:02;16.50;99.90
31038;DHT22;17702;47.590;7.666;2023-08-07T07:53:28;16.60;99.90
31038;DHT22;17702;47.590;7.666;2023-08-07T07:55:54;16.60;99.90
31038;DHT22;17702;47.590;7.666;2023-08-07T07:58:20;16.70;99.90
31038;DHT22;17702;47.590;7.666;2023-08-07T08:00:46;16.80;99.90
31038;DHT22;17702;47.590;7.666;2023-08-07T08:03:12;16.90;99.90
31038;DHT22;17702;47.590;7.666;2023-08-07T08:05:38;16.90;99.90
31038;DHT22;17702;47.590;7.666;2023-08-07T08:08:05;17.00;99.90
31038;DHT22;17702;47.590;7.666;2023-08-07T08:10:32;16.90;99.90
31038;DHT22;17702;47.590;7.666;2023-08-07T08:12:58;16.90;99.90
31038;DHT22;17702;47.590;7.666;2023-08-07T08:15:24;17.00;99.90
31038;DHT22;17702;47.590;7.666;2023-08-07T08:17:50;17.10;99.90
31038;DHT22;17702;47.590;7.666;2023-08-07T08:20:15;17.20;99.90
31038;DHT22;17702;47.590;7.666;2023-08-07T08:22:46;17.10;99.90
31038;DHT22;17702;47.590;7.666;2023-08-07T08:25:12;17.10;99.90
31038;DHT22;17702;47.590;7.666;2023-08-07T08:27:38;17.20;99.90
31038;DHT22;17702;47.590;7.666;2023-08-07T08:30:04;17.20;99.90
31038;DHT22;17702;47.590;7.666;2023-08-07T08:32:30;17.30;99.90
31038;DHT22;17702;47.590;7.666;2023-08-07T08:34:56;17.40;99.90
31038;DHT22;17702;47.590;7.666;2023-08-07T08:37:21;17.40;99.90
31038;DHT22;17702;47.590;7.666;2023-08-07T08:39:47;17.40;99.90
31038;DHT22;17702;47.590;7.666;2023-08-07T08:42:13;17.30;99.90
31038;DHT22;17702;47.590;7.666;2023-08-07T08:44:40;17.40;99.90
31038;DHT22;17702;47.590;7.666;2023-08-07T08:47:07;17.20;99.90
31038;DHT22;17702;47.590;7.666;2023-08-07T08:49:37;17.30;99.90
31038;DHT22;17702;47.590;7.666;2023-08-07T08:52:04;17.30;99.90
31038;DHT22;17702;47.590;7.666;2023-08-07T08:54:30;17.30;99.90
31038;DHT22;17702;47.590;7.666;2023-08-07T08:56:57;17.30;99.90
31038;DHT22;17702;47.590;7.666;2023-08-07T08:59:25;17.30;99.90
31038;DHT22;17702;47.590;7.666;2023-08-07T09:01:51;17.30;99.90
31038;DHT22;17702;47.590;7.666;2023-08-07T09:04:20;17.30;99.90
31038;DHT22;17702;47.590;7.666;2023-08-07T09:06:46;17.40;99.90
31038;DHT22;17702;47.590;7.666;2023-08-07T09:09:14;17.40;99.90
31038;DHT22;17702;47.590;7.666;2023-08-07T09:11:43;17.40;99.90
31038;DHT22;17702;47.590;7.666;2023-08-07T09:14:09;17.50;99.90
31038;DHT22;17702;47.590;7.666;2023-08-07T09:16:38;17.50;99.90
31038;DHT22;17702;47.590;7.666;2023-08-07T09:19:04;17.50;99.90
31038;DHT22;17702;47.590;7.666;2023-08-07T09:21:30;17.60;99.90
31038;DHT22;17702;47.590;7.666;2023-08-07T09:23:55;17.60;99.90
31038;DHT22;17702;47.590;7.666;2023-08-07T09:26:22;17.60;99.90
31038;DHT22;17702;47.590;7.666;2023-08-07T09:28:51;17.60;99.90
31038;DHT22;17702;47.590;7.666;2023-08-07T09:31:18;17.50;99.80
31038;DHT22;17702;47.590;7.666;2023-08-07T09:33:47;17.50;99.90
31038;DHT22;17702;47.590;7.666;2023-08-07T09:36:12;17.60;99.90
31038;DHT22;17702;47.590;7.666;2023-08-07T09:38:38;17.50;99.90
31038;DHT22;17702;47.590;7.666;2023-08-07T09:41:04;17.60;99.90
31038;DHT22;17702;47.590;7.666;2023-08-07T09:43:34;17.60;99.90
31038;DHT22;17702;47.590;7.666;2023-08-07T09:46:04;17.50;99.70
31038;DHT22;17702;47.590;7.666;2023-08-07T09:48:30;17.60;99.90
31038;DHT22;17702;47.590;7.666;2023-08-07T09:51:00;17.60;98.90
31038;DHT22;17702;47.590;7.666;2023-08-07T09:53:29;17.60;99.40
31038;DHT22;17702;47.590;7.666;2023-08-07T09:55:55;17.70;98.30
31038;DHT22;17702;47.590;7.666;2023-08-07T09:58:20;17.80;98.00
31038;DHT22;17702;47.590;7.666;2023-08-07T10:00:47;17.70;97.70
31038;DHT22;17702;47.590;7.666;2023-08-07T10:03:13;17.70;97.70
31038;DHT22;17702;47.590;7.666;2023-08-07T10:05:40;17.60;97.50
31038;DHT22;17702;47.590;7.666;2023-08-07T10:08:06;17.60;97.40
31038;DHT22;17702;47.590;7.666;2023-08-07T10:10:33;17.70;97.80
31038;DHT22;17702;47.590;7.666;2023-08-07T10:13:00;17.80;98.00
31038;DHT22;17702;47.590;7.666;2023-08-07T10:15:27;17.90;97.70
31038;DHT22;17702;47.590;7.666;2023-08-07T10:17:52;18.00;98.70
31038;DHT22;17702;47.590;7.666;2023-08-07T10:20:18;18.00;97.60
31038;DHT22;17702;47.590;7.666;2023-08-07T10:22:46;18.10;99.90
31038;DHT22;17702;47.590;7.666;2023-08-07T10:25:11;18.10;99.70
31038;DHT22;17702;47.590;7.666;2023-08-07T10:27:40;18.10;99.90
31038;DHT22;17702;47.590;7.666;2023-08-07T10:30:10;18.10;99.90
31038;DHT22;17702;47.590;7.666;2023-08-07T10:32:41;18.10;98.70
31038;DHT22;17702;47.590;7.666;2023-08-07T10:35:08;18.20;97.50
31038;DHT22;17702;47.590;7.666;2023-08-07T10:37:42;18.10;98.10
31038;DHT22;17702;47.590;7.666;2023-08-07T10:40:10;18.20;98.80
31038;DHT22;17702;47.590;7.666;2023-08-07T10:45:21;18.60;99.10
31038;DHT22;17702;47.590;7.666;2023-08-07T10:50:28;19.00;96.30
31038;DHT22;17702;47.590;7.666;2023-08-07T10:52:55;19.20;96.80
31038;DHT22;17702;47.590;7.666;2023-08-07T10:55:20;19.30;95.60
31038;DHT22;17702;47.590;7.666;2023-08-07T10:57:47;19.40;96.30
31038;DHT22;17702;47.590;7.666;2023-08-07T11:00:13;19.20;95.30
31038;DHT22;17702;47.590;7.666;2023-08-07T11:02:42;19.10;95.40
31038;DHT22;17702;47.590;7.666;2023-08-07T11:05:08;19.00;96.20
31038;DHT22;17702;47.590;7.666;2023-08-07T11:07:34;18.90;95.60
31038;DHT22;17702;47.590;7.666;2023-08-07T11:09:59;18.90;96.20
31038;DHT22;17702;47.590;7.666;2023-08-07T11:12:26;18.80;95.80
31038;DHT22;17702;47.590;7.666;2023-08-07T11:14:52;18.90;97.00
31038;DHT22;17702;47.590;7.666;2023-08-07T11:17:27;19.10;96.30
31038;DHT22;17702;47.590;7.666;2023-08-07T11:19:55;19.30;94.80
31038;DHT22;17702;47.590;7.666;2023-08-07T11:22:20;19.50;95.70
31038;DHT22;17702;47.590;7.666;2023-08-07T11:24:46;19.80;94.50
31038;DHT22;17702;47.590;7.666;2023-08-07T11:27:12;20.10;91.90
31038;DHT22;17702;47.590;7.666;2023-08-07T11:29:38;20.40;91.70
31038;DHT22;17702;47.590;7.666;2023-08-07T11:32:04;20.50;89.70
31038;DHT22;17702;47.590;7.666;2023-08-07T11:34:30;20.70;88.40
31038;DHT22;17702;47.590;7.666;2023-08-07T11:36:56;20.80;84.10
31038;DHT22;17702;47.590;7.666;2023-08-07T11:39:23;20.70;85.00
31038;DHT22;17702;47.590;7.666;2023-08-07T11:41:53;20.50;84.50
31038;DHT22;17702;47.590;7.666;2023-08-07T11:44:19;20.40;83.20
31038;DHT22;17702;47.590;7.666;2023-08-07T11:46:44;20.20;81.70
31038;DHT22;17702;47.590;7.666;2023-08-07T11:49:10;20.10;80.80
31038;DHT22;17702;47.590;7.666;2023-08-07T11:51:37;20.10;81.40
31038;DHT22;17702;47.590;7.666;2023-08-07T11:54:03;20.20;82.40
31038;DHT22;17702;47.590;7.666;2023-08-07T11:56:29;20.40;79.00
31038;DHT22;17702;47.590;7.666;2023-08-07T11:58:56;20.30;78.80
31038;DHT22;17702;47.590;7.666;2023-08-07T12:01:24;20.20;79.60
31038;DHT22;17702;47.590;7.666;2023-08-07T12:03:57;20.20;82.30
31038;DHT22;17702;47.590;7.666;2023-08-07T12:06:36;20.10;83.90
31038;DHT22;17702;47.590;7.666;2023-08-07T12:09:05;20.30;82.60
31038;DHT22;17702;47.590;7.666;2023-08-07T12:11:37;20.40;80.30
31038;DHT22;17702;47.590;7.666;2023-08-07T12:14:03;20.50;82.10
31038;DHT22;17702;47.590;7.666;2023-08-07T12:16:32;20.80;80.90
31038;DHT22;17702;47.590;7.666;2023-08-07T12:18:58;21.10;77.60
31038;DHT22;17702;47.590;7.666;2023-08-07T12:21:24;21.10;74.70
31038;DHT22;17702;47.590;7.666;2023-08-07T12:23:54;21.00;74.20
31038;DHT22;17702;47.590;7.666;2023-08-07T12:26:20;21.00;73.30
31038;DHT22;17702;47.590;7.666;2023-08-07T12:28:45;21.00;75.00
31038;DHT22;17702;47.590;7.666;2023-08-07T12:31:11;21.00;72.40
31038;DHT22;17702;47.590;7.666;2023-08-07T12:33:37;20.90;73.50
31038;DHT22;17702;47.590;7.666;2023-08-07T12:36:02;20.90;75.70
31038;DHT22;17702;47.590;7.666;2023-08-07T12:38:28;20.90;76.30
31038;DHT22;17702;47.590;7.666;2023-08-07T12:40:54;21.00;77.60
31038;DHT22;17702;47.590;7.666;2023-08-07T12:43:20;21.10;78.40
31038;DHT22;17702;47.590;7.666;2023-08-07T12:45:46;21.20;75.50
31038;DHT22;17702;47.590;7.666;2023-08-07T12:48:13;21.30;74.40
31038;DHT22;17702;47.590;7.666;2023-08-07T12:50:39;21.30;73.60
31038;DHT22;17702;47.590;7.666;2023-08-07T12:53:05;21.40;76.10
31038;DHT22;17702;47.590;7.666;2023-08-07T12:55:31;21.40;75.60
31038;DHT22;17702;47.590;7.666;2023-08-07T12:57:57;21.50;77.30
31038;DHT22;17702;47.590;7.666;2023-08-07T13:00:23;21.40;73.10
31038;DHT22;17702;47.590;7.666;2023-08-07T13:02:50;21.30;73.40
31038;DHT22;17702;47.590;7.666;2023-08-07T13:05:16;21.20;72.30
31038;DHT22;17702;47.590;7.666;2023-08-07T13:07:43;21.10;71.40
31038;DHT22;17702;47.590;7.666;2023-08-07T13:10:11;21.00;71.60
31038;DHT22;17702;47.590;7.666;2023-08-07T13:12:38;20.90;73.50
31038;DHT22;17702;47.590;7.666;2023-08-07T13:15:05;20.90;72.40
31038;DHT22;17702;47.590;7.666;2023-08-07T13:17:32;21.10;72.50
31038;DHT22;17702;47.590;7.666;2023-08-07T13:19:59;21.40;73.60
31038;DHT22;17702;47.590;7.666;2023-08-07T13:22:25;21.50;71.00
31038;DHT22;17702;47.590;7.666;2023-08-07T13:24:51;21.70;72.30
31038;DHT22;17702;47.590;7.666;2023-08-07T13:27:16;21.80;70.10
31038;DHT22;17702;47.590;7.666;2023-08-07T13:29:44;22.00;71.70
31038;DHT22;17702;47.590;7.666;2023-08-07T13:32:10;22.20;68.20
31038;DHT22;17702;47.590;7.666;2023-08-07T13:34:36;22.30;69.80
31038;DHT22;17702;47.590;7.666;2023-08-07T13:37:04;22.50;69.70
31038;DHT22;17702;47.590;7.666;2023-08-07T13:39:29;22.60;69.40
31038;DHT22;17702;47.590;7.666;2023-08-07T13:41:55;22.70;69.40
31038;DHT22;17702;47.590;7.666;2023-08-07T13:44:21;22.80;70.00
31038;DHT22;17702;47.590;7.666;2023-08-07T13:46:47;22.70;66.30
31038;DHT22;17702;47.590;7.666;2023-08-07T13:49:13;22.60;69.20
31038;DHT22;17702;47.590;7.666;2023-08-07T13:51:40;22.70;70.40
31038;DHT22;17702;47.590;7.666;2023-08-07T13:54:06;22.70;68.60
31038;DHT22;17702;47.590;7.666;2023-08-07T13:56:33;22.70;66.40
31038;DHT22;17702;47.590;7.666;2023-08-07T13:58:59;22.60;64.10
31038;DHT22;17702;47.590;7.666;2023-08-07T14:01:25;22.40;64.40
31038;DHT22;17702;47.590;7.666;2023-08-07T14:03:51;22.20;65.00
31038;DHT22;17702;47.590;7.666;2023-08-07T14:06:16;21.80;66.00
31038;DHT22;17702;47.590;7.666;2023-08-07T14:08:42;21.50;66.80
31038;DHT22;17702;47.590;7.666;2023-08-07T14:11:08;21.30;70.80
31038;DHT22;17702;47.590;7.666;2023-08-07T14:13:33;21.00;77.50
31038;DHT22;17702;47.590;7.666;2023-08-07T14:15:59;20.90;82.80
31038;DHT22;17702;47.590;7.666;2023-08-07T14:18:24;20.70;87.10
31038;DHT22;17702;47.590;7.666;2023-08-07T14:20:50;20.60;90.80
31038;DHT22;17702;47.590;7.666;2023-08-07T14:23:16;20.50;91.30
31038;DHT22;17702;47.590;7.666;2023-08-07T14:25:41;20.40;92.10
31038;DHT22;17702;47.590;7.666;2023-08-07T14:28:08;20.30;90.50
31038;DHT22;17702;47.590;7.666;2023-08-07T14:30:33;20.20;90.80
31038;DHT22;17702;47.590;7.666;2023-08-07T14:32:59;20.00;90.90
31038;DHT22;17702;47.590;7.666;2023-08-07T14:35:25;19.90;91.90
31038;DHT22;17702;47.590;7.666;2023-08-07T14:37:50;19.70;91.60
31038;DHT22;17702;47.590;7.666;2023-08-07T14:40:16;19.60;93.50
31038;DHT22;17702;47.590;7.666;2023-08-07T14:42:41;19.60;94.60
31038;DHT22;17702;47.590;7.666;2023-08-07T14:45:07;19.60;95.70
31038;DHT22;17702;47.590;7.666;2023-08-07T14:47:33;19.60;95.20
31038;DHT22;17702;47.590;7.666;2023-08-07T14:49:59;19.50;93.40
31038;DHT22;17702;47.590;7.666;2023-08-07T14:52:25;19.50;94.20
31038;DHT22;17702;47.590;7.666;2023-08-07T14:54:50;19.50;95.20
31038;DHT22;17702;47.590;7.666;2023-08-07T14:57:16;19.50;94.40
31038;DHT22;17702;47.590;7.666;2023-08-07T14:59:41;19.50;94.10
31038;DHT22;17702;47.590;7.666;2023-08-07T15:02:07;19.40;94.70
31038;DHT22;17702;47.590;7.666;2023-08-07T15:04:33;19.40;93.50
31038;DHT22;17702;47.590;7.666;2023-08-07T15:06:58;19.40;94.00
31038;DHT22;17702;47.590;7.666;2023-08-07T15:09:24;19.40;95.10
31038;DHT22;17702;47.590;7.666;2023-08-07T15:11:50;19.50;93.50
31038;DHT22;17702;47.590;7.666;2023-08-07T15:14:17;19.50;94.40
31038;DHT22;17702;47.590;7.666;2023-08-07T15:16:43;19.50;93.70
31038;DHT22;17702;47.590;7.666;2023-08-07T15:19:08;19.60;94.70
31038;DHT22;17702;47.590;7.666;2023-08-07T15:21:34;19.60;93.80
31038;DHT22;17702;47.590;7.666;2023-08-07T15:24:00;19.60;93.40
31038;DHT22;17702;47.590;7.666;2023-08-07T15:26:25;19.60;91.40
31038;DHT22;17702;47.590;7.666;2023-08-07T15:28:51;19.70;92.10
31038;DHT22;17702;47.590;7.666;2023-08-07T15:31:16;19.60;89.30
31038;DHT22;17702;47.590;7.666;2023-08-07T15:33:42;19.70;90.40